Time;durP1;ratioP1;P1;durP2;ratioP2;P2;SDS_P1;SDS_P2;PMS_P1;PMS_P2;Temp;Humidity;BMP_temperature;BMP_pressure;BME280_temperature;BME280_humidity;BME280_pressure;Samples;Min_cycle;Max_cycle;Signal;HPM_P1;HPM_P2
2021/06/12 00:01:13;;;;;;;5.30;4.38;;;16.00;76.00;;;;;;5076935;28;20509;-84
2021/06/12 00:03:39;;;;;;;7.45;4.80;;;15.90;76.50;;;;;;5076962;28;20032;-84
2021/06/12 00:06:05;;;;;;;4.95;4.38;;;15.80;76.40;;;;;;5069751;28;20027;-85
2021/06/12 00:08:31;;;;;;;5.03;4.53;;;15.90;76.30;;;;;;5076191;28;20025;-85
2021/06/12 00:10:57;;;;;;;5.20;4.40;;;15.90;76.00;;;;;;5075376;28;20025;-85
2021/06/12 00:13:23;;;;;;;7.32;4.38;;;15.90;76.00;;;;;;5076174;28;20065;-84
2021/06/12 00:15:53;;;;;;;5.10;4.05;;;15.90;76.00;;;;;;5075261;28;20029;-85
2021/06/12 00:18:18;;;;;;;6.15;4.47;;;15.90;75.90;;;;;;5089118;28;20068;-85
2021/06/12 00:20:44;;;;;;;4.28;3.90;;;15.80;76.00;;;;;;5083762;28;20147;-85
2021/06/12 00:23:10;;;;;;;5.60;4.53;;;15.70;76.00;;;;;;5095478;28;20028;-85
2021/06/12 00:25:38;;;;;;;7.07;3.85;;;15.70;76.00;;;;;;5073666;28;20028;-83
2021/06/12 00:28:04;;;;;;;;;;;15.60;76.30;;;;;;5072395;28;20033;-82
2021/06/12 00:30:30;;;;;;;4.35;3.88;;;15.60;76.70;;;;;;5064582;28;19923;-82
2021/06/12 00:32:56;;;;;;;6.22;4.32;;;15.60;76.60;;;;;;5065542;28;20084;-82
2021/06/12 00:35:23;;;;;;;5.75;4.88;;;15.50;77.70;;;;;;5069862;28;20121;-82
2021/06/12 00:37:49;;;;;;;5.13;4.63;;;15.50;78.20;;;;;;5063618;28;20029;-83
2021/06/12 00:40:16;;;;;;;5.22;4.70;;;15.40;78.80;;;;;;5067609;28;20403;-82
2021/06/12 00:42:45;;;;;;;6.38;5.28;;;15.30;79.60;;;;;;5068870;28;20166;-82
2021/06/12 00:45:14;;;;;;;6.90;4.97;;;15.30;79.50;;;;;;5070643;28;20027;-82
2021/06/12 00:47:40;;;;;;;6.55;4.63;;;15.20;79.80;;;;;;5070341;28;20024;-83
2021/06/12 00:50:07;;;;;;;5.15;4.57;;;15.20;79.70;;;;;;5063795;28;20027;-83
2021/06/12 00:52:33;;;;;;;4.47;4.07;;;15.20;79.30;;;;;;5071479;28;20043;-82
2021/06/12 00:54:59;;;;;;;4.45;4.05;;;15.20;78.60;;;;;;5072155;28;20016;-83
2021/06/12 00:57:25;;;;;;;6.97;4.60;;;15.10;78.60;;;;;;5065163;28;20028;-83
2021/06/12 00:59:51;;;;;;;6.85;4.38;;;15.10;78.70;;;;;;5066217;28;20036;-83
2021/06/12 01:02:17;;;;;;;5.05;4.55;;;15.10;78.60;;;;;;5067243;28;20039;-82
2021/06/12 01:04:42;;;;;;;8.20;4.47;;;15.20;78.60;;;;;;5065000;28;20020;-82
2021/06/12 01:07:08;;;;;;;5.43;4.80;;;15.10;79.10;;;;;;5064205;28;20032;-84
2021/06/12 01:09:34;;;;;;;5.72;4.40;;;15.00;79.80;;;;;;5069682;28;20020;-82
2021/06/12 01:12:35;;;;;;;5.18;4.68;;;15.00;80.40;;;;;;5060326;28;20487;-82
2021/06/12 01:15:05;;;;;;;6.80;4.70;;;14.90;80.50;;;;;;5061276;28;20025;-83
2021/06/12 01:17:57;;;;;;;4.97;4.47;;;14.90;80.30;;;;;;5064716;28;20028;-83
2021/06/12 01:20:56;;;;;;;6.00;5.40;;;14.90;80.10;;;;;;5063761;28;20024;-83
2021/06/12 01:23:59;;;;;;;7.65;4.90;;;14.90;81.10;;;;;;5069455;28;20036;-81
2021/06/12 01:26:46;;;;;;;6.80;5.00;;;14.80;81.20;;;;;;5069008;28;20119;-82
2021/06/12 01:29:27;;;;;;;5.63;4.90;;;14.80;81.00;;;;;;5062192;28;20035;-82
2021/06/12 01:31:54;;;;;;;5.78;4.72;;;14.80;81.50;;;;;;5068526;28;20098;-82
2021/06/12 01:34:22;;;;;;;5.53;4.43;;;14.80;81.20;;;;;;5066609;28;20025;-82
2021/06/12 01:36:49;;;;;;;6.22;5.05;;;14.80;81.50;;;;;;5067153;28;20047;-82
2021/06/12 01:39:19;;;;;;;4.72;4.20;;;14.80;81.20;;;;;;5068409;28;20078;-82
2021/06/12 01:41:46;;;;;;;5.60;4.93;;;14.80;80.00;;;;;;5068493;28;21082;-82
2021/06/12 01:44:12;;;;;;;8.07;5.28;;;14.80;79.50;;;;;;5066398;28;20090;-82
2021/06/12 01:46:39;;;;;;;5.38;4.85;;;14.70;79.80;;;;;;5070672;28;20038;-82
2021/06/12 01:49:05;;;;;;;6.80;4.72;;;14.70;79.60;;;;;;5066739;28;20024;-82
2021/06/12 01:51:32;;;;;;;8.25;5.15;;;14.70;79.80;;;;;;5071118;28;20032;-82
2021/06/12 01:53:58;;;;;;;7.20;4.75;;;14.70;80.00;;;;;;5066836;28;20032;-82
2021/06/12 01:56:26;;;;;;;5.82;4.95;;;14.70;80.40;;;;;;5063568;28;20020;-83
2021/06/12 01:58:53;;;;;;;7.45;4.63;;;14.60;81.00;;;;;;5060067;28;20036;-82
2021/06/12 02:01:22;;;;;;;9.27;5.47;;;14.60;80.90;;;;;;5068423;28;20029;-82
2021/06/12 02:03:49;;;;;;;5.70;4.47;;;14.60;81.00;;;;;;5067924;28;20023;-82
2021/06/12 02:06:17;;;;;;;5.68;4.78;;;14.60;81.00;;;;;;5070740;28;20181;-82
2021/06/12 02:08:44;;;;;;;6.40;4.82;;;14.60;80.90;;;;;;5066374;28;20021;-82
2021/06/12 02:11:14;;;;;;;6.55;5.50;;;14.50;81.50;;;;;;5063565;28;20029;-83
2021/06/12 02:13:41;;;;;;;7.28;5.15;;;14.40;82.70;;;;;;5066466;28;20021;-83
2021/06/12 02:16:07;;;;;;;7.00;5.00;;;14.40;82.60;;;;;;5063782;28;20028;-82
2021/06/12 02:18:33;;;;;;;5.38;4.88;;;14.50;82.40;;;;;;5066476;28;20028;-82
2021/06/12 02:21:00;;;;;;;6.93;5.00;;;14.40;82.30;;;;;;5063611;28;20021;-82
2021/06/12 02:23:28;;;;;;;5.40;4.35;;;14.40;82.10;;;;;;5063489;28;20104;-82
2021/06/12 02:25:54;;;;;;;7.10;4.53;;;14.40;81.90;;;;;;5060979;28;20111;-82
2021/06/12 02:28:21;;;;;;;6.03;4.60;;;14.50;81.80;;;;;;5063080;28;20115;-81
2021/06/12 02:30:55;;;;;;;7.68;5.10;;;14.60;81.70;;;;;;5067943;28;20094;-82
2021/06/12 02:33:23;;;;;;;5.75;4.68;;;14.50;82.10;;;;;;5072518;28;20025;-83
2021/06/12 02:35:49;;;;;;;6.28;4.78;;;14.50;82.00;;;;;;5071531;28;20069;-82
2021/06/12 02:38:14;;;;;;;6.68;4.95;;;14.50;81.80;;;;;;5073701;28;20024;-81
2021/06/12 02:40:40;;;;;;;7.38;4.88;;;14.50;81.20;;;;;;5070925;28;20029;-82
2021/06/12 02:43:06;;;;;;;4.88;4.20;;;14.50;80.10;;;;;;5063439;28;20086;-81
2021/06/12 02:45:32;;;;;;;7.95;5.05;;;14.30;80.50;;;;;;5083903;28;20066;-83
2021/06/12 02:48:01;;;;;;;5.95;5.05;;;14.30;80.80;;;;;;5078119;28;20156;-83
2021/06/12 02:50:31;;;;;;;6.25;5.25;;;14.30;81.90;;;;;;5069152;28;20024;-82
2021/06/12 02:53:02;;;;;;;7.40;5.43;;;14.20;82.60;;;;;;5071723;28;20025;-82
2021/06/12 02:55:30;;;;;;;6.78;5.47;;;14.10;83.00;;;;;;5063413;28;20059;-83
2021/06/12 02:57:57;;;;;;;5.30;4.78;;;14.10;83.00;;;;;;5059790;28;165756;-83
2021/06/12 03:00:24;;;;;;;5.80;5.20;;;14.10;83.60;;;;;;5065435;28;20078;-83
2021/06/12 03:02:51;;;;;;;6.57;5.15;;;14.10;83.60;;;;;;5074541;28;20031;-82
2021/06/12 03:05:28;;;;;;;7.22;5.18;;;14.10;83.60;;;;;;5068691;28;20044;-82
2021/06/12 03:07:57;;;;;;;6.18;5.10;;;14.20;83.30;;;;;;5061057;28;20039;-80
2021/06/12 03:10:29;;;;;;;6.07;4.68;;;14.10;83.60;;;;;;5069739;28;20024;-81
2021/06/12 03:12:56;;;;;;;5.78;5.18;;;14.10;83.80;;;;;;5058636;28;20390;-82
2021/06/12 03:15:23;;;;;;;8.13;4.85;;;14.10;83.40;;;;;;5066858;28;20024;-82
2021/06/12 03:17:51;;;;;;;7.40;5.20;;;14.10;83.50;;;;;;5084940;28;20116;-83
2021/06/12 03:20:18;;;;;;;;;;;14.10;83.40;;;;;;5056516;28;20021;-81
2021/06/12 03:22:46;;;;;;;7.22;4.90;;;14.10;83.40;;;;;;5073137;28;19905;-82
2021/06/12 03:25:14;;;;;;;8.70;5.25;;;14.20;83.20;;;;;;5072689;28;20033;-82
2021/06/12 03:27:41;;;;;;;7.03;5.78;;;14.10;83.50;;;;;;5087558;28;20025;-82
2021/06/12 03:30:07;;;;;;;6.40;5.40;;;14.10;83.70;;;;;;5068314;28;20034;-82
2021/06/12 03:32:33;;;;;;;6.32;4.90;;;14.10;83.30;;;;;;5082303;28;20052;-83
2021/06/12 03:35:01;;;;;;;6.88;5.03;;;14.20;82.70;;;;;;5074038;28;20477;-84
2021/06/12 03:37:27;;;;;;;6.45;4.95;;;14.20;82.20;;;;;;5062258;28;20087;-83
2021/06/12 03:39:53;;;;;;;7.93;5.07;;;14.20;81.50;;;;;;5064926;28;20026;-84
2021/06/12 03:42:20;;;;;;;6.30;4.78;;;14.20;81.40;;;;;;5063705;28;20033;-85
2021/06/12 03:44:49;;;;;;;8.10;4.88;;;14.20;81.30;;;;;;5060262;28;20032;-84
2021/06/12 03:47:15;;;;;;;;;;;14.10;82.00;;;;;;5062144;28;20037;-84
2021/06/12 03:49:42;;;;;;;5.88;4.50;;;14.10;82.90;;;;;;5058969;28;19915;-84
2021/06/12 03:52:08;;;;;;;6.18;5.00;;;14.10;82.60;;;;;;5061623;28;20110;-84
2021/06/12 03:54:36;;;;;;;7.15;5.10;;;14.10;83.40;;;;;;5063728;28;20024;-84
2021/06/12 03:57:03;;;;;;;6.72;5.45;;;14.10;83.80;;;;;;5058621;28;20067;-84
2021/06/12 03:59:29;;;;;;;5.93;4.97;;;14.10;84.00;;;;;;5065598;28;20040;-84
2021/06/12 04:01:56;;;;;;;5.85;5.05;;;14.10;84.20;;;;;;5069387;28;20419;-84
2021/06/12 04:04:24;;;;;;;6.55;5.68;;;14.10;83.80;;;;;;5064704;28;20052;-84
2021/06/12 04:06:50;;;;;;;6.05;5.15;;;14.20;83.70;;;;;;5063276;28;20115;-84
2021/06/12 04:09:16;;;;;;;5.88;5.28;;;14.30;83.60;;;;;;5073352;28;20028;-84
2021/06/12 04:11:42;;;;;;;6.28;5.07;;;14.20;83.60;;;;;;5067285;28;20024;-84
2021/06/12 04:14:08;;;;;;;5.95;5.32;;;14.20;83.80;;;;;;5068359;28;20020;-84
2021/06/12 04:16:34;;;;;;;6.07;5.50;;;14.30;83.80;;;;;;5067428;28;20032;-84
2021/06/12 04:19:01;;;;;;;6.55;5.72;;;14.30;84.70;;;;;;5069729;28;20032;-84
2021/06/12 04:21:27;;;;;;;8.23;5.70;;;14.30;83.60;;;;;;5066571;28;20442;-84
2021/06/12 04:23:53;;;;;;;6.05;5.28;;;14.40;83.60;;;;;;5064251;28;20107;-84
2021/06/12 04:26:18;;;;;;;9.10;5.75;;;14.30;83.70;;;;;;5070163;28;20201;-84
2021/06/12 04:28:44;;;;;;;6.80;6.00;;;14.30;84.10;;;;;;5065956;28;20025;-84
2021/06/12 04:31:10;;;;;;;7.25;5.82;;;14.40;83.90;;;;;;5061030;28;20028;-83
2021/06/12 04:33:36;;;;;;;7.53;5.90;;;14.40;83.30;;;;;;5066500;28;20425;-84
2021/06/12 04:36:03;;;;;;;8.75;6.10;;;14.50;83.50;;;;;;5064410;28;20029;-83
2021/06/12 04:38:28;;;;;;;6.80;5.63;;;14.50;83.30;;;;;;5069362;28;20435;-83
2021/06/12 04:40:54;;;;;;;8.15;6.18;;;14.50;83.40;;;;;;5062579;28;20057;-83
2021/06/12 04:43:20;;;;;;;7.50;5.55;;;14.60;83.20;;;;;;5067581;28;20036;-83
2021/06/12 04:45:46;;;;;;;7.35;5.90;;;14.70;83.30;;;;;;5066237;28;20107;-82
2021/06/12 04:48:11;;;;;;;8.80;6.07;;;14.70;83.30;;;;;;5067283;28;20027;-83
2021/06/12 04:50:39;;;;;;;8.45;6.70;;;14.70;83.00;;;;;;5058647;28;20039;-84
2021/06/12 04:53:07;;;;;;;8.63;5.80;;;14.70;83.30;;;;;;5071117;28;20029;-84
2021/06/12 04:55:34;;;;;;;6.82;6.05;;;14.80;82.50;;;;;;5070758;28;20636;-84
2021/06/12 04:58:01;;;;;;;6.50;5.55;;;14.80;82.90;;;;;;5067251;28;20495;-84
2021/06/12 05:00:27;;;;;;;8.05;5.70;;;14.90;82.70;;;;;;5066145;28;20036;-84
2021/06/12 05:02:53;;;;;;;7.28;6.00;;;14.90;82.30;;;;;;5073997;28;20024;-84
2021/06/12 05:05:18;;;;;;;6.80;6.10;;;15.00;82.60;;;;;;5070776;28;20097;-85
2021/06/12 05:07:44;;;;;;;9.25;6.25;;;15.10;82.70;;;;;;5065749;28;20037;-84
2021/06/12 05:10:11;;;;;;;9.55;6.88;;;15.20;82.60;;;;;;5083321;28;20055;-84
2021/06/12 05:12:38;;;;;;;8.30;6.18;;;15.20;82.30;;;;;;5063338;28;20025;-84
2021/06/12 05:15:06;;;;;;;9.73;7.07;;;15.30;83.80;;;;;;5063730;28;20116;-84
2021/06/12 05:17:32;;;;;;;;;;;15.40;82.50;;;;;;5076154;28;20043;-85
2021/06/12 05:19:58;;;;;;;10.25;6.80;;;15.50;83.30;;;;;;5070030;28;20002;-84
2021/06/12 05:22:27;;;;;;;10.52;7.68;;;15.60;83.80;;;;;;5070242;28;20055;-84
2021/06/12 05:24:54;;;;;;;9.40;7.38;;;15.60;84.90;;;;;;5069654;28;20459;-84
2021/06/12 05:27:20;;;;;;;9.45;6.70;;;15.80;84.10;;;;;;5066437;28;20027;-84
2021/06/12 05:29:46;;;;;;;8.15;6.53;;;15.80;82.80;;;;;;5082313;28;20407;-84
2021/06/12 05:32:12;;;;;;;8.80;6.80;;;15.90;82.20;;;;;;5065890;28;20435;-85
2021/06/12 05:34:38;;;;;;;8.43;6.38;;;16.00;82.10;;;;;;5062265;28;20035;-84
2021/06/12 05:37:04;;;;;;;8.57;7.10;;;16.10;82.20;;;;;;5066285;28;20095;-84
2021/06/12 05:39:30;;;;;;;9.57;6.53;;;16.20;81.60;;;;;;5064591;28;20036;-84
2021/06/12 05:41:56;;;;;;;9.73;6.78;;;16.30;81.10;;;;;;5060876;28;20038;-85
2021/06/12 05:44:22;;;;;;;9.18;6.75;;;16.40;80.50;;;;;;5060319;28;20032;-84
2021/06/12 05:46:50;;;;;;;11.25;7.20;;;16.50;80.80;;;;;;5059019;28;20364;-84
2021/06/12 05:49:16;;;;;;;8.93;6.72;;;16.60;80.30;;;;;;5063956;28;20109;-84
2021/06/12 05:51:42;;;;;;;14.85;7.10;;;16.80;79.30;;;;;;5063640;28;20028;-85
2021/06/12 05:54:08;;;;;;;8.05;6.75;;;16.80;79.10;;;;;;5067371;28;21400;-84
2021/06/12 05:56:33;;;;;;;8.43;7.00;;;16.90;78.40;;;;;;5068887;28;20411;-85
2021/06/12 05:58:59;;;;;;;8.07;7.07;;;16.90;77.80;;;;;;5063292;28;20092;-85
2021/06/12 06:01:25;;;;;;;9.10;6.85;;;17.10;78.30;;;;;;5061495;28;20152;-85
2021/06/12 06:03:50;;;;;;;9.27;6.65;;;17.10;78.60;;;;;;5077112;28;20016;-85
2021/06/12 06:06:16;;;;;;;10.40;6.72;;;17.30;78.60;;;;;;5090255;28;20020;-85
2021/06/12 06:08:42;;;;;;;8.93;6.85;;;17.30;78.40;;;;;;5080541;28;20024;-85
2021/06/12 06:11:07;;;;;;;8.40;6.63;;;17.50;78.60;;;;;;5074991;28;20025;-85
2021/06/12 06:13:41;;;;;;;9.40;6.43;;;17.50;78.30;;;;;;5066747;28;20027;-85
2021/06/12 06:16:07;;;;;;;8.82;6.78;;;17.60;78.00;;;;;;5066041;28;20079;-83
2021/06/12 06:18:35;;;;;;;8.05;7.15;;;17.70;78.50;;;;;;5064889;28;20049;-85
2021/06/12 06:21:00;;;;;;;8.18;6.60;;;17.90;78.00;;;;;;5063480;28;20051;-85
2021/06/12 06:23:26;;;;;;;8.23;6.82;;;18.00;77.80;;;;;;5062501;28;20446;-85
2021/06/12 06:25:52;;;;;;;10.73;6.50;;;18.00;77.30;;;;;;5066444;28;20033;-85
2021/06/12 06:28:18;;;;;;;8.52;6.80;;;18.00;76.90;;;;;;5066703;28;20030;-85
2021/06/12 06:30:44;;;;;;;9.30;6.68;;;18.10;76.50;;;;;;5064639;28;20032;-85
2021/06/12 06:33:09;;;;;;;8.90;7.78;;;18.10;76.30;;;;;;5063309;28;20028;-85
2021/06/12 06:35:36;;;;;;;9.27;7.15;;;18.10;76.50;;;;;;5062871;28;20096;-85
2021/06/12 06:38:01;;;;;;;10.00;7.65;;;18.20;76.10;;;;;;5069356;28;20028;-85
2021/06/12 06:40:27;;;;;;;11.02;7.22;;;18.20;76.80;;;;;;5063895;28;20025;-84
2021/06/12 06:42:53;;;;;;;9.57;7.28;;;18.30;76.70;;;;;;5068539;28;20032;-85
2021/06/12 06:45:19;;;;;;;9.82;6.80;;;18.40;77.00;;;;;;5066962;28;20633;-85
2021/06/12 06:47:44;;;;;;;9.05;7.53;;;18.50;76.50;;;;;;5058227;28;20186;-84
2021/06/12 06:50:11;;;;;;;10.45;8.00;;;18.50;75.40;;;;;;5060573;28;20021;-85
2021/06/12 06:52:37;;;;;;;8.52;7.32;;;18.60;75.60;;;;;;5065852;28;20023;-86
2021/06/12 06:55:04;;;;;;;9.15;7.35;;;18.70;76.30;;;;;;5060853;28;20029;-85
2021/06/12 06:57:29;;;;;;;10.10;8.80;;;18.80;76.50;;;;;;5061153;28;20043;-83
2021/06/12 06:59:55;;;;;;;10.88;7.78;;;18.90;74.60;;;;;;5064017;28;20036;-84
2021/06/12 07:02:21;;;;;;;12.90;7.72;;;19.00;74.60;;;;;;5063390;28;20136;-85
2021/06/12 07:04:47;;;;;;;10.20;7.90;;;19.10;74.50;;;;;;5058108;28;20506;-84
2021/06/12 07:07:12;;;;;;;10.10;7.40;;;19.20;73.00;;;;;;5060792;28;20056;-85
2021/06/12 07:09:38;;;;;;;8.95;7.20;;;19.30;73.30;;;;;;5065513;28;20031;-84
2021/06/12 07:12:04;;;;;;;8.35;7.18;;;19.40;71.40;;;;;;5072342;28;20027;-84
2021/06/12 07:14:31;;;;;;;10.35;7.45;;;19.50;70.80;;;;;;5068868;28;20479;-84
2021/06/12 07:16:56;;;;;;;8.70;7.38;;;19.60;72.30;;;;;;5075856;28;20516;-84
2021/06/12 07:19:22;;;;;;;9.40;7.07;;;19.70;71.60;;;;;;5067635;28;20028;-84
2021/06/12 07:21:49;;;;;;;8.57;7.25;;;19.80;71.50;;;;;;5066634;28;20434;-83
2021/06/12 07:24:15;;;;;;;10.57;7.72;;;19.80;71.40;;;;;;5066965;28;20032;-84
2021/06/12 07:26:42;;;;;;;8.23;7.15;;;20.00;72.30;;;;;;5065150;28;20123;-82
2021/06/12 07:29:10;;;;;;;8.82;7.65;;;20.20;71.80;;;;;;5070730;28;20561;-83
2021/06/12 07:31:37;;;;;;;9.20;7.27;;;20.30;72.10;;;;;;5065254;28;20035;-84
2021/06/12 07:34:04;;;;;;;9.30;6.82;;;20.50;72.00;;;;;;5067207;28;20052;-85
2021/06/12 07:36:30;;;;;;;7.22;6.18;;;20.50;69.90;;;;;;5064138;28;20482;-85
2021/06/12 07:38:56;;;;;;;8.77;6.43;;;20.60;70.50;;;;;;5070193;28;20028;-85
2021/06/12 07:41:21;;;;;;;7.35;6.45;;;20.60;69.80;;;;;;5069502;28;20033;-84
2021/06/12 07:43:47;;;;;;;7.45;6.07;;;20.70;69.30;;;;;;5065995;28;20040;-85
2021/06/12 07:46:13;;;;;;;7.07;5.90;;;20.80;68.00;;;;;;5068470;28;20022;-84
2021/06/12 07:48:38;;;;;;;6.55;5.68;;;21.00;68.30;;;;;;5072395;28;20199;-83
2021/06/12 07:51:05;;;;;;;7.93;6.10;;;21.10;66.90;;;;;;5073995;28;20118;-83
2021/06/12 07:53:32;;;;;;;9.48;5.88;;;21.20;66.30;;;;;;5063529;28;20089;-83
2021/06/12 07:55:58;;;;;;;6.95;6.15;;;21.30;66.00;;;;;;5066483;28;20023;-84
2021/06/12 07:58:24;;;;;;;6.28;5.22;;;21.40;67.20;;;;;;5085360;28;20036;-84
2021/06/12 08:00:50;;;;;;;9.52;5.70;;;21.50;65.10;;;;;;5074785;28;20043;-83
2021/06/12 08:03:15;;;;;;;6.75;5.47;;;21.50;63.10;;;;;;5062054;28;20039;-82
2021/06/12 08:05:41;;;;;;;6.45;5.70;;;21.50;63.80;;;;;;5061698;28;20093;-83
2021/06/12 08:08:07;;;;;;;8.75;5.72;;;21.60;65.20;;;;;;5066539;28;20135;-83
2021/06/12 08:10:34;;;;;;;6.97;5.53;;;21.70;64.90;;;;;;5065030;28;20673;-83
2021/06/12 08:13:00;;;;;;;6.43;5.65;;;21.90;63.50;;;;;;5063493;28;20502;-83
2021/06/12 08:15:27;;;;;;;6.20;5.20;;;22.00;64.10;;;;;;5064023;28;20021;-83
2021/06/12 08:17:53;;;;;;;7.50;6.15;;;22.10;64.60;;;;;;5063903;28;20036;-83
2021/06/12 08:20:20;;;;;;;6.50;5.80;;;22.20;62.40;;;;;;5074563;28;20058;-83
2021/06/12 08:22:46;;;;;;;7.20;6.07;;;22.30;62.60;;;;;;5075562;28;20040;-83
2021/06/12 08:25:12;;;;;;;8.40;6.20;;;22.30;61.80;;;;;;5075267;28;20747;-83
2021/06/12 08:27:38;;;;;;;6.53;5.85;;;22.30;61.40;;;;;;5074879;28;20421;-82
2021/06/12 08:30:06;;;;;;;8.90;5.80;;;22.40;62.50;;;;;;5069232;28;20028;-82
2021/06/12 08:32:31;;;;;;;7.75;5.75;;;22.40;63.80;;;;;;5076282;28;20443;-85
2021/06/12 08:34:57;;;;;;;6.68;5.68;;;22.40;64.30;;;;;;5067293;28;20124;-85
2021/06/12 08:37:23;;;;;;;6.95;5.78;;;22.50;64.20;;;;;;5065792;28;20111;-84
2021/06/12 08:39:50;;;;;;;6.82;5.93;;;22.60;63.50;;;;;;5065195;28;20394;-82
2021/06/12 08:42:16;;;;;;;6.15;5.60;;;22.70;65.10;;;;;;5070917;28;20059;-82
2021/06/12 08:44:44;;;;;;;6.93;6.22;;;22.70;65.60;;;;;;5071176;28;20028;-81
2021/06/12 08:47:10;;;;;;;5.95;5.38;;;22.80;63.90;;;;;;5071653;28;20028;-83
2021/06/12 08:49:37;;;;;;;6.57;5.88;;;22.80;62.10;;;;;;5074076;28;20452;-81
2021/06/12 08:52:04;;;;;;;6.53;5.93;;;22.80;62.50;;;;;;5072882;28;20085;-83
2021/06/12 08:54:29;;;;;;;6.10;5.53;;;22.90;63.60;;;;;;5076725;28;20469;-83
2021/06/12 08:56:55;;;;;;;6.20;5.60;;;23.00;61.90;;;;;;5072004;28;20036;-83
2021/06/12 08:59:21;;;;;;;6.50;5.30;;;23.10;60.50;;;;;;5065184;28;20151;-82
2021/06/12 09:01:47;;;;;;;7.75;5.93;;;23.20;61.20;;;;;;5075057;28;20033;-82
2021/06/12 09:04:26;;;;;;;5.70;5.20;;;23.40;60.40;;;;;;5074053;28;20111;-82
2021/06/12 09:07:17;;;;;;;5.80;5.20;;;23.40;59.30;;;;;;5073575;28;20490;-81
2021/06/12 09:09:43;;;;;;;5.78;5.18;;;23.30;60.70;;;;;;5072204;28;20025;-80
2021/06/12 09:12:09;;;;;;;5.75;5.25;;;23.50;60.60;;;;;;5072011;28;20466;-81
2021/06/12 09:14:35;;;;;;;5.22;4.72;;;23.50;59.40;;;;;;5067689;28;20024;-80
2021/06/12 09:17:01;;;;;;;5.80;5.20;;;23.50;59.50;;;;;;5072297;28;20036;-80
2021/06/12 09:19:27;;;;;;;5.55;5.05;;;23.70;60.30;;;;;;5070694;28;20029;-82
2021/06/12 09:22:00;;;;;;;5.88;5.28;;;24.00;60.20;;;;;;5063483;28;20092;-81
2021/06/12 09:24:32;;;;;;;5.68;4.70;;;24.20;60.30;;;;;;5071490;28;20029;-82
2021/06/12 09:27:00;;;;;;;5.43;4.80;;;24.20;58.20;;;;;;5074503;28;20032;-83
2021/06/12 09:29:52;;;;;;;;;;;24.00;57.10;;;;;;5067113;28;20016;-81
2021/06/12 09:32:18;;;;;;;5.53;4.18;;;23.90;56.70;;;;;;5067058;28;20294;-81
2021/06/12 09:34:47;;;;;;;5.28;4.78;;;23.80;56.10;;;;;;5069844;28;20092;-79
2021/06/12 09:37:18;;;;;;;6.40;4.97;;;23.90;57.30;;;;;;5068848;28;20017;-79
2021/06/12 09:39:59;;;;;;;4.75;4.35;;;24.00;58.20;;;;;;5091206;28;20028;-81
2021/06/12 09:42:56;;;;;;;5.68;4.47;;;24.30;57.20;;;;;;5065390;28;20078;-81
2021/06/12 09:45:31;;;;;;;4.90;4.40;;;24.30;57.90;;;;;;5073135;28;20423;-82
2021/06/12 09:48:12;;;;;;;5.13;4.63;;;24.40;55.90;;;;;;5072250;28;20039;-82
2021/06/12 09:50:39;;;;;;;5.80;4.68;;;24.40;58.20;;;;;;5069292;28;20066;-82
2021/06/12 09:53:17;;;;;;;4.80;4.40;;;24.30;57.20;;;;;;5070065;28;20059;-82
2021/06/12 09:55:44;;;;;;;6.05;4.65;;;24.30;56.20;;;;;;5072364;28;20032;-81
2021/06/12 09:58:11;;;;;;;7.13;4.65;;;24.20;56.10;;;;;;5071932;28;20115;-84
2021/06/12 10:00:43;;;;;;;5.23;4.73;;;24.10;56.00;;;;;;5072489;28;20490;-80
2021/06/12 10:03:28;;;;;;;5.43;4.93;;;24.00;55.60;;;;;;5071873;28;20041;-82
2021/06/12 10:06:18;;;;;;;5.00;4.60;;;24.00;55.80;;;;;;5070634;28;20036;-82
2021/06/12 10:08:49;;;;;;;4.90;4.50;;;24.20;57.50;;;;;;5076976;28;20469;-82
2021/06/12 10:11:16;;;;;;;5.30;4.80;;;24.40;55.70;;;;;;5073853;28;20033;-81
2021/06/12 10:13:46;;;;;;;5.88;5.00;;;24.10;54.70;;;;;;5073094;28;20021;-80
2021/06/12 10:16:13;;;;;;;7.05;4.82;;;24.10;55.80;;;;;;5068180;28;20024;-80
2021/06/12 10:18:40;;;;;;;7.60;4.45;;;24.10;54.60;;;;;;5069484;28;20040;-81
2021/06/12 10:21:14;;;;;;;5.18;4.68;;;24.20;55.10;;;;;;5061095;28;20067;-80
2021/06/12 10:23:42;;;;;;;5.25;4.68;;;24.30;57.40;;;;;;5062542;28;20376;-81
2021/06/12 10:26:09;;;;;;;5.95;4.65;;;24.50;56.80;;;;;;5073918;28;20024;-82
2021/06/12 10:28:35;;;;;;;4.90;4.38;;;24.70;56.20;;;;;;5077062;28;20051;-82
2021/06/12 10:31:10;;;;;;;5.38;4.57;;;24.80;55.40;;;;;;5065414;28;20033;-82
2021/06/12 10:33:41;;;;;;;7.38;5.07;;;24.80;54.80;;;;;;5067571;28;20530;-80
2021/06/12 10:36:11;;;;;;;4.97;4.47;;;24.90;55.90;;;;;;5067678;28;20025;-79
2021/06/12 10:38:37;;;;;;;7.10;4.90;;;24.80;54.80;;;;;;5068211;28;20052;-80
2021/06/12 10:41:24;;;;;;;37.67;20.52;;;24.80;54.70;;;;;;5070989;28;20032;-80
2021/06/12 10:43:53;;;;;;;20.05;14.50;;;24.90;55.10;;;;;;5070755;28;20025;-82
2021/06/12 10:46:24;;;;;;;16.48;14.20;;;25.10;56.00;;;;;;5069112;28;20029;-81
2021/06/12 10:48:57;;;;;;;41.63;33.70;;;25.00;54.30;;;;;;5072096;28;20109;-83
2021/06/12 10:51:26;;;;;;;27.42;20.92;;;24.80;51.20;;;;;;5055351;28;20387;-81
2021/06/12 10:54:28;;;;;;;27.77;24.98;;;24.70;52.10;;;;;;5072152;28;20025;-82
2021/06/12 10:56:59;;;;;;;24.25;19.50;;;24.60;51.40;;;;;;5075545;28;20122;-80
2021/06/12 10:59:37;;;;;;;41.88;26.42;;;24.70;53.70;;;;;;5072881;28;20411;-81
2021/06/12 11:02:05;;;;;;;;;;;24.60;52.00;;;;;;5068659;28;20781;-81
2021/06/12 11:04:40;;;;;;;6.22;5.63;;;24.60;53.50;;;;;;5070456;28;19908;-81
2021/06/12 11:07:24;;;;;;;6.60;4.88;;;24.60;53.70;;;;;;5065355;28;20025;-81
2021/06/12 11:09:50;;;;;;;8.35;7.07;;;24.70;52.70;;;;;;5074836;28;20036;-85
2021/06/12 11:12:15;;;;;;;220.07;155.40;;;24.70;50.30;;;;;;5065016;28;20028;-83
2021/06/12 11:14:57;;;;;;;509.67;357.00;;;24.80;51.90;;;;;;5077220;28;20024;-79
2021/06/12 11:17:23;;;;;;;88.35;56.85;;;24.90;52.90;;;;;;5069196;28;20078;-83
2021/06/12 11:20:01;;;;;;;12.77;11.38;;;24.90;52.20;;;;;;5073747;28;20025;-82
2021/06/12 11:22:36;;;;;;;43.85;37.38;;;24.70;50.60;;;;;;5067323;28;20033;-82
2021/06/12 11:25:07;;;;;;;79.00;54.50;;;24.60;50.60;;;;;;5076022;28;20043;-84
2021/06/12 11:27:41;;;;;;;28.17;22.15;;;24.60;50.70;;;;;;5070593;28;20031;-83
2021/06/12 11:30:21;;;;;;;6.93;6.30;;;24.50;51.80;;;;;;5071961;28;20017;-82
2021/06/12 11:32:55;;;;;;;5.90;5.32;;;24.50;53.80;;;;;;5072907;28;20686;-81
2021/06/12 11:35:56;;;;;;;68.63;50.33;;;24.50;53.60;;;;;;5074685;28;20052;-81
2021/06/12 11:38:31;;;;;;;67.15;41.75;;;24.40;52.10;;;;;;5073281;28;20075;-82
2021/06/12 11:40:58;;;;;;;23.00;19.55;;;24.40;52.40;;;;;;5069858;28;20075;-83
2021/06/12 11:43:48;;;;;;;9.30;8.33;;;24.30;52.40;;;;;;5064505;28;20036;-82
2021/06/12 11:46:29;;;;;;;8.05;5.97;;;24.20;52.80;;;;;;5069471;28;20091;-82
2021/06/12 11:48:56;;;;;;;5.90;5.28;;;24.20;52.50;;;;;;5064809;28;20029;-82
2021/06/12 11:51:33;;;;;;;22.98;15.98;;;24.20;53.50;;;;;;5081928;28;20084;-83
2021/06/12 11:54:05;;;;;;;17.33;15.35;;;24.30;55.40;;;;;;5059465;28;20021;-81
2021/06/12 11:56:31;;;;;;;6.93;6.30;;;24.50;56.30;;;;;;5068460;28;20529;-82
2021/06/12 11:58:59;;;;;;;6.38;5.63;;;24.60;52.50;;;;;;5068242;28;20031;-81
2021/06/12 12:01:36;;;;;;;8.35;7.13;;;24.70;53.40;;;;;;5067120;28;20119;-82
2021/06/12 12:04:13;;;;;;;10.03;7.17;;;24.80;52.30;;;;;;5076629;28;20115;-83
2021/06/12 12:06:47;;;;;;;7.45;6.63;;;24.80;53.20;;;;;;5074611;28;20024;-83
2021/06/12 12:09:21;;;;;;;6.80;5.60;;;24.90;53.50;;;;;;5065721;28;20106;-81
2021/06/12 12:12:05;;;;;;;5.53;5.03;;;25.00;51.80;;;;;;5062403;28;20032;-81
2021/06/12 12:14:41;;;;;;;5.65;5.05;;;25.10;56.30;;;;;;5065798;28;20115;-83
2021/06/12 12:17:23;;;;;;;5.33;4.83;;;25.00;53.80;;;;;;5078448;28;20025;-82
2021/06/12 12:20:04;;;;;;;7.45;4.78;;;25.00;53.00;;;;;;5071524;28;20293;-80
2021/06/12 12:22:41;;;;;;;11.00;9.85;;;25.10;53.70;;;;;;5063487;28;20020;-81
2021/06/12 12:25:12;;;;;;;11.20;10.02;;;25.20;52.60;;;;;;5063278;28;20029;-79
2021/06/12 12:27:39;;;;;;;11.80;9.52;;;25.20;51.20;;;;;;5065896;28;20040;-81
2021/06/12 12:30:08;;;;;;;5.97;5.33;;;25.20;55.00;;;;;;5067405;28;20033;-80
2021/06/12 12:32:34;;;;;;;26.85;17.58;;;25.20;51.00;;;;;;5065630;28;20040;-82
2021/06/12 12:35:13;;;;;;;111.72;55.63;;;25.20;53.80;;;;;;5065309;28;20070;-82
2021/06/12 12:37:39;;;;;;;12.65;10.05;;;25.20;51.50;;;;;;5069259;28;20032;-81
2021/06/12 12:40:19;;;;;;;17.75;14.40;;;25.10;50.50;;;;;;5074300;28;20035;-80
2021/06/12 12:42:45;;;;;;;80.28;41.00;;;25.10;52.80;;;;;;5074253;28;20024;-80
2021/06/12 12:45:12;;;;;;;17.30;14.73;;;25.20;52.60;;;;;;5070677;28;20062;-82
2021/06/12 12:47:38;;;;;;;10.00;9.02;;;25.40;50.80;;;;;;5067538;28;20450;-82
2021/06/12 12:50:05;;;;;;;18.10;14.70;;;25.40;49.50;;;;;;5064723;28;20028;-83
2021/06/12 12:52:31;;;;;;;18.25;16.20;;;25.40;51.90;;;;;;5070664;28;20478;-81
2021/06/12 12:55:02;;;;;;;13.90;12.38;;;25.30;49.60;;;;;;5066912;28;20117;-83